Time;durP1;ratioP1;P1;durP2;ratioP2;P2;SDS_P1;SDS_P2;PMS_P1;PMS_P2;Temp;Humidity;BMP_temperature;BMP_pressure;BME280_temperature;BME280_humidity;BME280_pressure;Samples;Min_cycle;Max_cycle;Signal;HPM_P1;HPM_P2
2020/12/05 00:00:25;;;;;;;42.80;16.00;;;;;;;0.23;84.17;100548.91;1768865;80;21139;-72
2020/12/05 00:02:52;;;;;;;43.40;18.48;;;;;;;0.21;84.26;100544.19;1768126;80;21188;-73
2020/12/05 00:05:19;;;;;;;45.45;18.95;;;;;;;0.16;84.38;100541.20;1753021;82;21566;-72
2020/12/05 00:07:47;;;;;;;43.23;19.82;;;;;;;0.31;84.04;100554.42;1753152;80;21323;-72
2020/12/05 00:10:14;;;;;;;48.80;20.65;;;;;;;0.33;83.99;100542.69;1753691;80;21162;-72
2020/12/05 00:12:41;;;;;;;37.42;16.20;;;;;;;0.31;84.09;100557.03;1752610;82;21182;-73
2020/12/05 00:15:08;;;;;;;45.30;19.67;;;;;;;0.37;83.74;100552.61;1754774;80;21317;-72
2020/12/05 00:17:35;;;;;;;50.98;21.42;;;;;;;0.31;83.59;100551.83;1768360;80;21147;-74
2020/12/05 00:20:04;;;;;;;44.45;19.15;;;;;;;0.22;83.91;100553.69;1759356;80;21636;-73
2020/12/05 00:22:31;;;;;;;44.65;20.40;;;;;;;0.30;83.81;100555.30;1773514;80;21147;-73
2020/12/05 00:24:58;;;;;;;38.15;15.08;;;;;;;0.32;83.72;100561.81;1741530;82;21152;-72
2020/12/05 00:27:25;;;;;;;39.88;17.75;;;;;;;0.23;83.93;100565.83;1756941;81;21182;-73
2020/12/05 00:29:53;;;;;;;44.95;18.50;;;;;;;0.29;83.88;100561.84;1741583;82;21718;-73
2020/12/05 00:32:22;;;;;;;44.80;17.60;;;;;;;0.31;83.66;100559.63;1751641;80;21604;-73
2020/12/05 00:34:49;;;;;;;43.60;19.00;;;;;;;0.22;83.94;100569.30;1747985;81;21160;-74
2020/12/05 00:37:17;;;;;;;47.03;20.23;;;;;;;0.23;84.05;100569.73;1747791;82;21538;-73
2020/12/05 00:39:44;;;;;;;52.73;22.17;;;;;;;0.32;83.80;100564.41;1750261;81;21141;-73
2020/12/05 00:42:11;;;;;;;46.10;19.42;;;;;;;0.26;83.92;100573.15;1731395;82;21160;-73
2020/12/05 00:44:38;;;;;;;53.40;23.42;;;;;;;0.23;84.02;100578.83;1778654;80;21171;-72
2020/12/05 00:47:06;;;;;;;66.87;28.25;;;;;;;0.36;83.80;100582.11;1778165;81;21167;-72
2020/12/05 00:49:33;;;;;;;79.37;29.60;;;;;;;0.47;83.56;100577.61;1758109;81;21152;-72
2020/12/05 00:52:00;;;;;;;63.92;24.55;;;;;;;0.40;83.38;100582.05;1747920;81;21149;-72
2020/12/05 00:54:27;;;;;;;74.67;28.92;;;;;;;0.38;83.33;100571.25;1747436;82;21163;-72
2020/12/05 00:56:56;;;;;;;82.33;29.00;;;;;;;0.52;82.88;100576.25;1747466;82;21192;-72
2020/12/05 00:59:23;;;;;;;68.40;23.27;;;;;;;0.42;82.88;100579.00;1764716;81;21313;-71
2020/12/05 01:01:54;;;;;;;74.20;30.52;;;;;;;0.28;83.22;100571.81;1730725;82;21640;-71
2020/12/05 01:04:22;;;;;;;72.85;28.90;;;;;;;0.34;83.15;100573.03;1760107;81;21175;-71
2020/12/05 01:06:50;;;;;;;79.40;29.10;;;;;;;0.38;83.03;100561.69;1741456;82;21432;-72
2020/12/05 01:09:18;;;;;;;70.25;25.85;;;;;;;0.22;83.23;100565.40;1710822;84;21688;-72
2020/12/05 01:11:46;;;;;;;63.98;24.23;;;;;;;0.15;83.41;100559.02;1756731;81;21170;-72
2020/12/05 01:14:14;;;;;;;77.72;27.45;;;;;;;0.22;83.14;100561.50;1747994;82;21305;-73
2020/12/05 01:16:46;;;;;;;72.90;24.18;;;;;;;0.21;83.29;100562.41;1747536;82;21091;-72
2020/12/05 01:19:13;;;;;;;59.42;21.85;;;;;;;-0.04;83.45;100541.92;1728059;82;21144;-73
2020/12/05 01:21:46;;;;;;;67.32;27.17;;;;;;;0.23;83.30;100569.30;1747395;81;21653;-72
2020/12/05 01:24:13;;;;;;;63.23;23.60;;;;;;;0.23;83.26;100565.83;1756682;80;21144;-72
2020/12/05 01:26:41;;;;;;;64.07;22.90;;;;;;;0.16;83.30;100569.81;1766619;80;21548;-72
2020/12/05 01:29:08;;;;;;;61.00;24.43;;;;;;;0.15;83.20;100562.91;1765103;80;21225;-72
2020/12/05 01:31:38;;;;;;;64.20;24.75;;;;;;;0.27;82.83;100586.58;1755429;81;21342;-72
2020/12/05 01:34:05;;;;;;;65.90;25.00;;;;;;;0.22;82.93;100577.11;1766811;80;21178;-72
2020/12/05 01:36:34;;;;;;;64.12;22.75;;;;;;;0.13;83.13;100577.67;1769401;80;21309;-72
2020/12/05 01:39:01;;;;;;;67.80;25.97;;;;;;;0.24;82.88;100580.10;1756316;80;21148;-73
2020/12/05 01:41:28;;;;;;;68.17;24.23;;;;;;;0.22;82.93;100594.02;1756049;80;21226;-71
2020/12/05 01:43:55;;;;;;;60.08;25.08;;;;;;;0.14;83.16;100585.02;1780197;80;21139;-72
2020/12/05 01:46:40;;;;;;;67.42;28.92;;;;;;;0.21;83.03;100591.02;1728353;82;21185;-72
2020/12/05 01:49:09;;;;;;;79.40;26.65;;;;;;;0.21;82.96;100578.02;1755552;82;21550;-72
2020/12/05 01:51:36;;;;;;;72.37;24.55;;;;;;;0.09;83.16;100577.30;1756083;80;21152;-71
2020/12/05 01:54:04;;;;;;;68.07;25.30;;;;;;;0.04;83.45;100578.23;1761595;80;21171;-71
2020/12/05 01:56:31;;;;;;;67.50;26.45;;;;;;;0.13;83.24;100576.37;1755785;81;21715;-72
2020/12/05 01:59:00;;;;;;;61.37;23.67;;;;;;;0.14;83.39;100570.30;1765619;80;21691;-72
2020/12/05 02:01:28;;;;;;;62.15;24.98;;;;;;;0.05;83.43;100576.05;1752923;80;21220;-72
2020/12/05 02:03:57;;;;;;;64.30;23.62;;;;;;;0.13;83.28;100575.07;1710286;83;21301;-73
2020/12/05 02:06:39;;;;;;;53.85;19.15;;;;;;;0.13;82.98;100563.82;1710965;83;22370;-71
2020/12/05 02:09:17;;;;;;;59.40;22.00;;;;;;;-0.08;83.29;100563.66;1725482;83;21171;-72
2020/12/05 02:11:53;;;;;;;54.95;21.15;;;;;;;-0.01;83.25;100565.30;1699313;84;21150;-71
2020/12/05 02:14:27;;;;;;;67.50;25.92;;;;;;;0.03;83.26;100562.23;1771748;79;22989;-72
2020/12/05 02:17:02;;;;;;;60.10;21.70;;;;;;;-0.12;83.49;100567.19;1752421;82;21155;-73
2020/12/05 02:19:48;;;;;;;58.45;21.40;;;;;;;-0.13;83.54;100563.70;1747277;82;21578;-72
2020/12/05 02:22:31;;;;;;;65.30;24.60;;;;;;;-0.07;83.40;100578.38;1723326;83;21586;-72
2020/12/05 02:24:58;;;;;;;58.13;21.37;;;;;;;-0.19;83.67;100582.86;1747772;82;21297;-74
2020/12/05 02:27:25;;;;;;;66.30;24.98;;;;;;;-0.09;83.54;100582.31;1752996;82;21147;-73
2020/12/05 02:29:52;;;;;;;67.47;23.62;;;;;;;-0.09;83.45;100591.41;1750738;82;21305;-72
2020/12/05 02:32:19;;;;;;;53.52;19.95;;;;;;;-0.15;83.55;100589.30;1725888;82;21603;-72
2020/12/05 02:34:47;;;;;;;64.77;24.02;;;;;;;-0.13;83.46;100591.01;1736999;82;21646;-74
2020/12/05 02:37:20;;;;;;;71.28;25.02;;;;;;;-0.09;83.26;100580.13;1752966;82;21151;-72
2020/12/05 02:39:48;;;;;;;59.03;20.52;;;;;;;-0.15;83.33;100586.28;1752988;82;21742;-73
2020/12/05 02:42:19;;;;;;;58.45;21.65;;;;;;;-0.22;83.46;100582.91;1752961;81;21153;-73
2020/12/05 02:44:52;;;;;;;57.20;22.77;;;;;;;-0.13;83.30;100584.96;1741262;82;21707;-74
2020/12/05 02:47:22;;;;;;;51.70;19.55;;;;;;;-0.12;83.23;100592.73;1741966;82;21171;-72
2020/12/05 02:49:49;;;;;;;50.50;17.65;;;;;;;-0.25;83.42;100588.12;1730112;81;21281;-72
2020/12/05 02:52:16;;;;;;;52.17;21.15;;;;;;;-0.19;83.38;100591.95;1723184;83;21316;-73
2020/12/05 02:54:45;;;;;;;62.43;23.40;;;;;;;-0.08;83.05;100603.51;1729761;82;21114;-72
2020/12/05 02:57:15;;;;;;;62.85;21.82;;;;;;;-0.18;83.19;100591.51;1749088;82;21155;-72
2020/12/05 02:59:42;;;;;;;49.85;20.70;;;;;;;-0.21;83.38;100583.31;1753113;82;21297;-73
2020/12/05 03:02:15;;;;;;;57.98;22.07;;;;;;;-0.10;83.02;100590.11;1728877;82;21556;-73
2020/12/05 03:04:42;;;;;;;57.00;21.17;;;;;;;-0.18;83.14;100596.28;1736745;82;21205;-73
2020/12/05 03:07:10;;;;;;;60.12;22.82;;;;;;;-0.25;83.35;100597.23;1752851;82;21661;-74
2020/12/05 03:09:37;;;;;;;54.13;19.98;;;;;;;-0.11;83.13;100588.41;1733045;82;21631;-74
2020/12/05 03:12:06;;;;;;;73.90;28.80;;;;;;;-0.15;83.23;100593.20;1722998;83;21199;-74
2020/12/05 03:14:35;;;;;;;59.93;23.85;;;;;;;-0.23;83.49;100594.60;1731289;81;21126;-73
2020/12/05 03:17:02;;;;;;;66.35;25.02;;;;;;;-0.18;83.34;100598.89;1753963;81;21296;-74
2020/12/05 03:19:29;;;;;;;67.90;22.00;;;;;;;-0.16;83.25;100588.46;1745587;81;21131;-74
2020/12/05 03:21:58;;;;;;;61.48;23.92;;;;;;;-0.24;83.54;100589.86;1725487;82;21174;-74
2020/12/05 03:24:27;;;;;;;62.50;25.43;;;;;;;-0.23;83.70;100595.91;1745591;82;21139;-74
2020/12/05 03:26:56;;;;;;;67.37;25.80;;;;;;;-0.08;83.41;100590.51;1740474;82;21151;-74
2020/12/05 03:29:25;;;;;;;71.17;22.85;;;;;;;-0.08;83.41;100587.06;1723430;83;21127;-74
2020/12/05 03:32:02;;;;;;;60.10;23.32;;;;;;;-0.22;83.68;100579.44;1725329;82;21162;-74
2020/12/05 03:34:28;;;;;;;70.12;25.57;;;;;;;-0.12;83.47;100585.39;1735809;82;21168;-73
2020/12/05 03:36:57;;;;;;;70.00;24.45;;;;;;;-0.21;83.62;100582.00;1742335;82;21584;-73
2020/12/05 03:39:27;;;;;;;63.90;25.48;;;;;;;-0.22;83.80;100584.63;1723685;83;21718;-73
2020/12/05 03:41:56;;;;;;;54.73;20.40;;;;;;;-0.17;83.64;100587.61;1723443;82;21214;-73
2020/12/05 03:44:25;;;;;;;62.67;22.35;;;;;;;-0.24;83.89;100585.11;1727388;82;21786;-73
2020/12/05 03:46:54;;;;;;;66.47;26.42;;;;;;;-0.22;84.01;100583.33;1735200;82;21599;-73
2020/12/05 03:49:21;;;;;;;67.55;26.42;;;;;;;-0.10;83.71;100596.61;1753327;82;21548;-72
2020/12/05 03:51:49;;;;;;;66.75;23.62;;;;;;;-0.17;83.81;100582.84;1751132;82;21123;-73
2020/12/05 03:54:18;;;;;;;57.43;23.67;;;;;;;-0.32;84.24;100583.88;1753343;82;21313;-73
2020/12/05 03:56:46;;;;;;;57.20;20.85;;;;;;;-0.25;84.08;100589.43;1729824;82;21607;-73
2020/12/05 03:59:13;;;;;;;73.33;28.98;;;;;;;-0.32;84.18;100579.98;1737643;82;21272;-73
2020/12/05 04:01:42;;;;;;;79.05;28.60;;;;;;;-0.38;84.48;100587.88;1735484;82;21626;-73
2020/12/05 04:04:09;;;;;;;67.55;25.17;;;;;;;-0.29;84.29;100591.66;1723387;83;21206;-73
2020/12/05 04:06:39;;;;;;;72.22;29.48;;;;;;;-0.34;84.46;100596.89;1725267;82;21289;-73
2020/12/05 04:09:06;;;;;;;69.27;26.57;;;;;;;-0.30;84.51;100594.28;1686385;85;21222;-73
2020/12/05 04:11:38;;;;;;;58.75;21.85;;;;;;;-0.23;84.28;100593.30;1723378;83;21160;-73
2020/12/05 04:14:09;;;;;;;57.98;22.13;;;;;;;-0.30;84.47;100587.33;1714814;83;21175;-73
2020/12/05 04:16:37;;;;;;;71.05;29.65;;;;;;;-0.30;84.53;100589.08;1713152;82;21155;-73
2020/12/05 04:19:05;;;;;;;80.32;30.30;;;;;;;-0.23;84.34;100596.78;1728109;82;21131;-73
2020/12/05 04:21:35;;;;;;;63.52;25.60;;;;;;;-0.34;84.55;100583.90;1709904;83;21334;-73
2020/12/05 04:24:02;;;;;;;58.30;25.20;;;;;;;-0.24;84.54;100582.06;1726993;82;21317;-73
2020/12/05 04:26:34;;;;;;;61.60;21.85;;;;;;;-0.18;84.25;100584.59;1724193;81;21595;-73
2020/12/05 04:29:04;;;;;;;48.28;20.62;;;;;;;-0.26;84.50;100573.41;1709845;84;21196;-73
2020/12/05 04:31:31;;;;;;;69.60;27.27;;;;;;;-0.17;84.41;100586.31;1716707;82;21607;-73
2020/12/05 04:33:58;;;;;;;74.50;26.90;;;;;;;-0.04;83.99;100585.72;1727704;82;21306;-73
2020/12/05 04:36:29;;;;;;;56.45;24.12;;;;;;;-0.05;84.00;100592.20;1717522;82;21595;-73
2020/12/05 04:38:57;;;;;;;60.48;24.82;;;;;;;-0.05;83.91;100584.41;1676374;84;21599;-73
2020/12/05 04:41:24;;;;;;;66.55;26.50;;;;;;;0.05;83.55;100589.94;1671831;84;21710;-72
2020/12/05 04:43:53;;;;;;;62.60;22.58;;;;;;;0.04;83.42;100584.73;1699105;84;21202;-73
2020/12/05 04:46:20;;;;;;;45.23;18.70;;;;;;;-0.04;83.36;100595.23;1686414;84;21198;-73
2020/12/05 04:48:48;;;;;;;59.00;23.45;;;;;;;0.03;83.19;100589.09;1683712;84;21143;-71
2020/12/05 04:51:17;;;;;;;55.40;21.62;;;;;;;-0.03;83.26;100600.86;1697266;84;21151;-71
2020/12/05 04:53:48;;;;;;;42.30;19.10;;;;;;;-0.14;83.63;100600.13;1687330;84;21643;-72
2020/12/05 04:56:18;;;;;;;56.15;23.22;;;;;;;-0.22;83.89;100598.93;1675699;84;21167;-74
2020/12/05 04:58:48;;;;;;;62.10;24.60;;;;;;;-0.15;83.73;100610.11;1671984;84;21163;-73
2020/12/05 05:01:17;;;;;;;56.45;22.20;;;;;;;-0.20;83.93;100599.78;1671882;84;21171;-73
2020/12/05 05:03:45;;;;;;;50.28;20.45;;;;;;;-0.25;84.19;100608.92;1675816;85;21170;-73
2020/12/05 05:06:19;;;;;;;57.17;22.42;;;;;;;-0.13;83.90;100600.56;1673032;84;21830;-73
2020/12/05 05:08:48;;;;;;;54.38;23.38;;;;;;;-0.17;83.92;100601.91;1704796;83;21204;-74
2020/12/05 05:11:16;;;;;;;43.73;20.88;;;;;;;-0.21;84.22;100601.95;1704757;84;21156;-74
2020/12/05 05:14:02;;;;;;;53.63;23.55;;;;;;;-0.04;83.87;100601.73;1715698;82;21349;-73
2020/12/05 05:16:29;;;;;;;48.13;20.75;;;;;;;-0.05;83.69;100610.41;1686447;85;21178;-73
2020/12/05 05:18:57;;;;;;;46.88;21.27;;;;;;;-0.09;83.82;100618.72;1661013;85;21194;-73
2020/12/05 05:21:41;;;;;;;48.20;21.55;;;;;;;-0.13;83.82;100605.77;1729471;82;21166;-72
2020/12/05 05:24:20;;;;;;;48.28;19.87;;;;;;;-0.08;83.58;100610.47;1737689;82;21154;-73
2020/12/05 05:27:10;;;;;;;37.00;18.23;;;;;;;-0.28;84.07;100604.20;1753154;82;21734;-74
2020/12/05 05:29:43;;;;;;;42.23;17.90;;;;;;;-0.26;84.18;100617.59;1724445;82;21552;-73
2020/12/05 05:32:26;;;;;;;42.88;18.17;;;;;;;-0.35;84.41;100607.32;1736581;82;21128;-74
2020/12/05 05:35:12;;;;;;;44.20;20.27;;;;;;;-0.41;84.73;100609.56;1748825;82;21159;-73
2020/12/05 05:37:40;;;;;;;46.20;20.68;;;;;;;-0.25;84.33;100611.53;1724741;82;21587;-74
2020/12/05 05:40:10;;;;;;;40.90;18.95;;;;;;;-0.26;84.39;100604.60;1725428;82;21256;-72
2020/12/05 05:42:41;;;;;;;38.05;17.35;;;;;;;-0.29;84.59;100608.55;1686158;85;21190;-74
2020/12/05 05:45:21;;;;;;;44.05;19.45;;;;;;;-0.12;84.27;100608.79;1730382;82;21723;-74
2020/12/05 05:47:52;;;;;;;35.35;16.70;;;;;;;-0.17;84.35;100612.73;1727947;82;21607;-74
2020/12/05 05:50:25;;;;;;;41.50;20.45;;;;;;;-0.24;84.57;100606.75;1748135;82;21542;-74
2020/12/05 05:52:59;;;;;;;42.10;19.95;;;;;;;-0.10;84.26;100620.02;1731201;82;21167;-73
2020/12/05 05:55:49;;;;;;;;;;;;;;;-0.16;84.35;100620.96;1746468;82;21163;-72
2020/12/05 05:58:20;;;;;;;45.48;20.12;;;;;;;-0.27;84.58;100628.02;1746467;82;20199;-73
2020/12/05 06:01:10;;;;;;;43.68;19.45;;;;;;;-0.20;84.42;100618.83;1736196;82;21123;-73
2020/12/05 06:03:43;;;;;;;45.78;20.82;;;;;;;-0.22;84.48;100621.91;1713632;83;21190;-72
2020/12/05 06:06:10;;;;;;;37.28;16.60;;;;;;;-0.19;84.62;100615.36;1710336;83;21201;-73
2020/12/05 06:08:37;;;;;;;34.58;17.05;;;;;;;-0.13;84.44;100620.91;1712169;83;21122;-73
2020/12/05 06:11:11;;;;;;;41.40;18.50;;;;;;;-0.24;84.62;100624.11;1723481;83;21181;-72
2020/12/05 06:13:39;;;;;;;;;;;;;;;-0.17;84.48;100617.52;1710836;83;21205;-72
2020/12/05 06:16:06;;;;;;;38.75;17.05;;;;;;;-0.17;84.47;100625.31;1705645;84;20408;-75
2020/12/05 06:18:34;;;;;;;47.50;20.20;;;;;;;-0.25;84.74;100634.92;1713191;83;21307;-76
2020/12/05 06:21:01;;;;;;;35.15;16.62;;;;;;;-0.14;84.53;100628.73;1709324;83;21169;-72
2020/12/05 06:23:49;;;;;;;41.28;19.30;;;;;;;-0.20;84.53;100637.48;1712358;83;21178;-75
2020/12/05 06:26:28;;;;;;;46.60;20.02;;;;;;;-0.25;84.79;100644.02;1716894;83;21185;-73
2020/12/05 06:29:01;;;;;;;48.10;21.25;;;;;;;-0.19;84.60;100624.45;1734755;83;21115;-73
2020/12/05 06:31:45;;;;;;;32.70;14.53;;;;;;;-0.26;84.79;100635.80;1734903;83;21169;-73
2020/12/05 06:34:43;;;;;;;43.13;17.45;;;;;;;-0.21;84.83;100647.00;1734687;83;21714;-75
2020/12/05 06:37:12;;;;;;;44.13;20.17;;;;;;;-0.13;84.57;100640.86;1706088;83;21586;-73
2020/12/05 06:39:40;;;;;;;43.70;18.75;;;;;;;-0.26;84.83;100653.99;1705438;84;21191;-73
2020/12/05 06:42:19;;;;;;;43.35;18.45;;;;;;;-0.22;84.76;100652.23;1707601;83;21171;-69
2020/12/05 06:44:47;;;;;;;44.50;21.82;;;;;;;-0.32;85.01;100651.91;1723643;83;21286;-73
2020/12/05 06:47:25;;;;;;;49.83;20.80;;;;;;;-0.26;85.09;100650.55;1718235;83;21308;-75
2020/12/05 06:49:53;;;;;;;45.70;19.45;;;;;;;-0.19;84.92;100654.81;1714914;83;21166;-73
2020/12/05 06:52:30;;;;;;;44.05;18.45;;;;;;;-0.20;85.07;100655.23;1715405;83;21599;-73
2020/12/05 06:55:12;;;;;;;44.42;20.43;;;;;;;-0.09;84.96;100653.83;1705259;84;21308;-73
2020/12/05 06:57:42;;;;;;;40.63;16.60;;;;;;;-0.08;84.68;100650.77;1705383;84;21186;-72
2020/12/05 07:00:21;;;;;;;44.58;18.62;;;;;;;-0.20;84.93;100669.53;1705549;84;21364;-73
2020/12/05 07:02:55;;;;;;;46.95;19.10;;;;;;;-0.10;84.82;100665.52;1705446;84;21583;-73
2020/12/05 07:05:42;;;;;;;44.08;17.90;;;;;;;-0.07;84.73;100683.25;1705752;83;21199;-74
2020/12/05 07:08:36;;;;;;;41.83;17.30;;;;;;;-0.23;85.11;100669.58;1705658;83;21169;-72
2020/12/05 07:11:13;;;;;;;;;;;;;;;-0.08;84.91;100675.02;1721311;83;21594;-73
2020/12/05 07:13:47;;;;;;;40.55;17.65;;;;;;;-0.11;84.91;100672.92;1735023;83;20437;-75
2020/12/05 07:16:24;;;;;;;;;;;;;;;-0.15;85.21;100685.52;1737364;83;21138;-74
2020/12/05 07:18:54;;;;;;;38.60;16.62;;;;;;;-0.03;84.92;100681.48;1734852;83;20185;-74
2020/12/05 07:21:23;;;;;;;36.93;15.32;;;;;;;-0.13;85.13;100681.16;1721994;82;21168;-74
2020/12/05 07:23:51;;;;;;;45.03;20.77;;;;;;;-0.15;85.28;100690.71;1705847;84;21629;-74
2020/12/05 07:26:19;;;;;;;44.05;20.60;;;;;;;-0.06;85.04;100691.93;1688272;85;21404;-73
2020/12/05 07:28:48;;;;;;;47.65;20.02;;;;;;;-0.03;84.96;100694.48;1674530;84;21210;-73
2020/12/05 07:31:17;;;;;;;40.05;17.55;;;;;;;-0.06;85.07;100695.83;1671497;85;21130;-73
2020/12/05 07:33:45;;;;;;;40.45;16.70;;;;;;;0.01;84.87;100696.16;1698377;83;21710;-73
2020/12/05 07:36:13;;;;;;;44.40;19.95;;;;;;;0.04;84.74;100703.06;1643515;86;21647;-73
2020/12/05 07:38:43;;;;;;;37.10;15.38;;;;;;;-0.08;85.00;100709.28;1670730;86;21166;-73
2020/12/05 07:41:16;;;;;;;42.38;17.98;;;;;;;-0.07;85.05;100713.61;1671741;86;21814;-73
2020/12/05 07:43:45;;;;;;;35.33;15.43;;;;;;;-0.03;84.87;100716.59;1696441;84;21140;-74
2020/12/05 07:46:15;;;;;;;45.30;19.17;;;;;;;-0.13;85.16;100716.27;1660634;86;21169;-73
2020/12/05 07:48:43;;;;;;;44.27;17.30;;;;;;;-0.04;85.11;100718.76;1701184;83;21606;-74
2020/12/05 07:51:14;;;;;;;46.48;19.45;;;;;;;-0.03;84.92;100723.09;1679632;85;21596;-73
2020/12/05 07:53:42;;;;;;;43.33;18.77;;;;;;;-0.06;85.12;100728.34;1713563;83;21146;-74
2020/12/05 07:56:17;;;;;;;43.98;17.32;;;;;;;0.01;84.88;100720.87;1643024;87;21316;-74
2020/12/05 07:58:50;;;;;;;40.75;17.67;;;;;;;-0.02;85.00;100725.66;1688390;85;21720;-73
2020/12/05 08:01:40;;;;;;;51.45;20.12;;;;;;;-0.08;85.00;100725.73;1648756;86;21606;-73
2020/12/05 08:04:44;;;;;;;48.08;18.12;;;;;;;0.03;84.68;100729.53;1703280;83;21707;-74
2020/12/05 08:07:42;;;;;;;35.63;17.00;;;;;;;-0.08;84.89;100728.78;1680088;85;21219;-74
2020/12/05 08:10:13;;;;;;;47.67;20.40;;;;;;;-0.11;85.04;100728.83;1697101;83;21111;-72
2020/12/05 08:13:11;;;;;;;44.53;19.07;;;;;;;-0.14;85.04;100744.02;1668762;85;21247;-72
2020/12/05 08:15:39;;;;;;;46.13;21.80;;;;;;;-0.12;85.26;100734.45;1690836;83;21610;-73
2020/12/05 08:18:06;;;;;;;38.75;17.48;;;;;;;0.06;84.81;100740.34;1659000;86;21348;-74
2020/12/05 08:20:34;;;;;;;40.58;19.32;;;;;;;0.04;84.81;100742.96;1688388;85;21285;-74
2020/12/05 08:23:01;;;;;;;43.25;18.77;;;;;;;0.03;84.76;100737.78;1671015;85;21182;-74
2020/12/05 08:25:28;;;;;;;41.55;18.48;;;;;;;0.12;84.41;100738.52;1677354;84;21601;-73
2020/12/05 08:27:56;;;;;;;38.48;17.20;;;;;;;0.06;84.54;100741.64;1692255;83;21198;-74
2020/12/05 08:30:23;;;;;;;40.33;19.12;;;;;;;0.01;84.59;100739.08;1686021;85;21715;-74
2020/12/05 08:33:01;;;;;;;43.85;17.57;;;;;;;0.03;84.41;100750.79;1679198;84;21210;-74
2020/12/05 08:35:32;;;;;;;36.83;16.15;;;;;;;-0.06;84.70;100746.54;1689005;83;21709;-73
2020/12/05 08:38:02;;;;;;;46.55;19.07;;;;;;;0.04;84.48;100746.86;1671731;86;21179;-73
2020/12/05 08:40:31;;;;;;;43.50;20.45;;;;;;;0.03;84.57;100764.64;1682428;84;21142;-75
2020/12/05 08:42:59;;;;;;;46.48;19.70;;;;;;;0.00;84.71;100751.69;1684505;84;21154;-73
2020/12/05 08:45:26;;;;;;;44.13;18.98;;;;;;;0.11;84.49;100757.60;1673741;84;21711;-73
2020/12/05 08:47:54;;;;;;;44.98;16.73;;;;;;;0.08;84.58;100770.66;1699740;84;21718;-73
2020/12/05 08:53:16;;;;;;;50.12;21.27;;;;;;;0.18;84.45;100764.04;1930357;73;23631;-73
2020/12/05 08:55:47;;;;;;;36.53;14.47;;;;;;;0.06;84.59;100763.30;1860222;74;21148;-73
2020/12/05 08:58:15;;;;;;;50.58;20.30;;;;;;;0.04;84.70;100765.07;1898570;75;21612;-74
2020/12/05 09:00:42;;;;;;;47.35;20.25;;;;;;;0.12;84.51;100761.94;1875634;75;21131;-73
2020/12/05 09:03:19;;;;;;;40.38;17.40;;;;;;;0.10;84.60;100761.11;1812349;78;21166;-73
2020/12/05 09:05:48;;;;;;;47.95;21.02;;;;;;;0.09;84.80;100761.98;1829799;78;21178;-73
2020/12/05 09:08:20;;;;;;;43.02;19.80;;;;;;;0.20;84.58;100758.39;1830399;77;21150;-72
2020/12/05 09:10:49;;;;;;;42.58;17.70;;;;;;;0.19;84.51;100757.52;1829822;78;21119;-73
2020/12/05 09:13:16;;;;;;;45.90;21.55;;;;;;;0.12;84.73;100747.62;1829689;78;21186;-73
2020/12/05 09:16:00;;;;;;;44.42;19.52;;;;;;;0.25;84.58;100740.98;1830570;76;21138;-73
2020/12/05 09:18:46;;;;;;;45.15;19.80;;;;;;;0.32;84.29;100729.64;1886625;76;21130;-72
2020/12/05 09:21:22;;;;;;;39.38;16.45;;;;;;;0.21;84.38;100731.05;1889721;76;21122;-72
2020/12/05 09:24:04;;;;;;;41.15;17.67;;;;;;;0.30;84.22;100727.03;1854996;76;21444;-72
2020/12/05 09:26:32;;;;;;;46.02;18.12;;;;;;;0.25;84.20;100730.58;1830130;78;21273;-73
2020/12/05 09:29:00;;;;;;;39.25;16.12;;;;;;;0.23;84.37;100728.42;1861096;76;21603;-73
2020/12/05 09:31:28;;;;;;;40.60;15.25;;;;;;;0.31;84.07;100722.25;1798835;80;21162;-73
2020/12/05 09:33:55;;;;;;;46.85;20.02;;;;;;;0.24;84.32;100736.20;1825556;78;21137;-72
2020/12/05 09:36:22;;;;;;;41.60;16.70;;;;;;;0.25;84.40;100731.89;1825746;78;21115;-72
2020/12/05 09:40:30;;;;;;;56.10;21.68;;;;;;;0.39;84.14;100724.76;1780005;79;23702;-71
2020/12/05 09:42:58;;;;;;;48.00;20.15;;;;;;;0.29;84.45;100734.86;1746549;82;21131;-72
2020/12/05 09:45:27;;;;;;;41.35;16.73;;;;;;;0.39;84.27;100722.16;1725907;82;21280;-72
2020/12/05 09:47:54;;;;;;;38.55;15.70;;;;;;;0.45;83.95;100735.09;1723295;83;21610;-72
2020/12/05 09:50:22;;;;;;;42.83;17.52;;;;;;;0.31;84.18;100726.61;1723453;83;21567;-71
2020/12/05 09:52:50;;;;;;;43.50;19.12;;;;;;;0.35;84.20;100715.27;1729959;82;21662;-71
2020/12/05 09:55:17;;;;;;;45.95;19.65;;;;;;;0.29;84.24;100730.95;1735000;82;21277;-71
2020/12/05 09:57:44;;;;;;;39.05;18.30;;;;;;;0.25;84.53;100722.78;1723430;83;21222;-72
2020/12/05 10:00:12;;;;;;;40.00;18.57;;;;;;;0.32;84.39;100722.68;1722280;83;21187;-72
2020/12/05 10:02:41;;;;;;;49.23;19.75;;;;;;;0.34;84.53;100733.52;1721785;83;21727;-73
2020/12/05 10:05:10;;;;;;;36.13;16.60;;;;;;;0.38;84.61;100728.69;1752666;82;21174;-72
2020/12/05 10:07:38;;;;;;;46.80;19.95;;;;;;;0.57;84.15;100725.41;1752941;82;21150;-71
2020/12/05 10:10:07;;;;;;;40.03;17.67;;;;;;;0.52;84.09;100737.63;1747131;82;21300;-72
2020/12/05 10:12:35;;;;;;;37.80;16.57;;;;;;;0.40;84.35;100730.39;1741113;82;21615;-72
2020/12/05 10:15:03;;;;;;;32.28;15.13;;;;;;;0.45;84.17;100736.39;1753055;81;21651;-72
2020/12/05 10:17:32;;;;;;;45.78;20.15;;;;;;;0.35;84.36;100742.60;1736293;81;21171;-71
2020/12/05 10:19:59;;;;;;;38.50;17.82;;;;;;;0.32;84.52;100743.95;1728881;82;21139;-72
2020/12/05 10:22:26;;;;;;;39.75;18.32;;;;;;;0.37;84.42;100734.34;1723326;83;21607;-72
2020/12/05 10:24:53;;;;;;;35.23;16.40;;;;;;;0.28;84.70;100739.22;1724048;82;21284;-72
2020/12/05 10:27:21;;;;;;;35.63;17.62;;;;;;;0.38;84.58;100736.05;1723031;83;21214;-72
2020/12/05 10:29:48;;;;;;;44.63;20.52;;;;;;;0.35;84.41;100743.90;1748238;82;21198;-72
2020/12/05 10:32:15;;;;;;;42.65;19.25;;;;;;;0.28;84.57;100739.22;1749294;82;21179;-71
2020/12/05 10:34:43;;;;;;;38.60;16.87;;;;;;;0.39;84.39;100736.92;1735518;82;21190;-72
2020/12/05 10:37:10;;;;;;;34.67;17.05;;;;;;;0.33;84.54;100741.75;1681505;85;21809;-72
2020/12/05 10:39:37;;;;;;;39.15;18.42;;;;;;;0.32;84.57;100749.16;1689887;83;21149;-72
2020/12/05 10:42:05;;;;;;;50.80;22.37;;;;;;;0.38;84.49;100737.80;1703468;83;21153;-73
2020/12/05 10:44:32;;;;;;;42.25;19.12;;;;;;;0.31;84.59;100747.42;1699640;83;21118;-72
2020/12/05 10:47:00;;;;;;;41.40;18.15;;;;;;;0.35;84.70;100746.50;1699208;83;21275;-72
2020/12/05 10:49:28;;;;;;;49.85;21.57;;;;;;;0.45;84.33;100757.22;1718831;83;21125;-73
2020/12/05 10:51:55;;;;;;;44.75;22.25;;;;;;;0.37;84.47;100759.48;1704179;83;21126;-72
2020/12/05 10:54:23;;;;;;;46.30;21.90;;;;;;;0.44;84.36;100756.80;1702585;83;21295;-73
2020/12/05 10:56:51;;;;;;;50.40;22.13;;;;;;;0.48;84.08;100755.86;1711331;83;21567;-72
2020/12/05 10:59:18;;;;;;;45.88;21.50;;;;;;;0.41;84.28;100770.28;1694834;83;21184;-73
2020/12/05 11:01:48;;;;;;;44.13;20.20;;;;;;;0.37;84.27;100758.19;1691540;85;21128;-72
2020/12/05 11:18:01;;;;;;;49.40;24.80;;;;;;;1.45;81.09;100746.24;1764055;79;22976;-72
2020/12/05 11:20:29;;;;;;;44.67;23.15;;;;;;;1.38;81.05;100757.64;1723298;83;21187;-73
2020/12/05 11:22:56;;;;;;;50.52;22.65;;;;;;;1.22;81.60;100764.41;1728766;82;21151;-74
2020/12/05 11:25:23;;;;;;;51.68;24.67;;;;;;;1.07;81.87;100766.79;1752977;82;21199;-73
2020/12/05 11:27:51;;;;;;;49.63;24.63;;;;;;;0.99;82.02;100767.36;1752940;82;21348;-73
2020/12/05 11:30:18;;;;;;;45.08;21.68;;;;;;;1.03;81.94;100767.73;1753119;82;21160;-73
2020/12/05 11:32:46;;;;;;;56.68;26.73;;;;;;;0.94;82.21;100773.92;1753140;82;21702;-72
2020/12/05 11:35:13;;;;;;;47.67;21.77;;;;;;;0.87;82.43;100771.42;1746404;82;21214;-73
2020/12/05 11:37:40;;;;;;;44.73;23.00;;;;;;;0.90;82.24;100768.80;1723291;83;21718;-72
2020/12/05 11:40:09;;;;;;;45.30;21.60;;;;;;;0.96;81.94;100768.72;1723215;83;21187;-73
2020/12/05 11:42:37;;;;;;;50.58;24.57;;;;;;;0.85;82.09;100776.66;1686523;85;21748;-73
2020/12/05 11:45:05;;;;;;;43.05;22.73;;;;;;;0.75;82.40;100773.77;1683861;85;21214;-73
2020/12/05 11:47:33;;;;;;;49.23;24.05;;;;;;;0.79;82.22;100777.62;1683807;85;21345;-73